createdAt,value
2018-08-10T00:00:43.363Z,19.14
2018-08-10T00:03:11.153Z,19.22
2018-08-10T00:05:40.084Z,19.01
2018-08-10T00:08:08.106Z,19.19
2018-08-10T00:10:35.799Z,18.82
2018-08-10T00:13:03.655Z,19.10
2018-08-10T00:15:31.417Z,18.97
2018-08-10T00:17:59.169Z,18.81
2018-08-10T00:20:26.992Z,19.06
2018-08-10T00:22:54.738Z,19.12
2018-08-10T00:25:22.484Z,19.16
2018-08-10T00:27:50.233Z,19.02
2018-08-10T00:30:18.953Z,18.98
2018-08-10T00:32:47.933Z,18.95
2018-08-10T00:35:15.749Z,18.94
2018-08-10T00:37:44.158Z,18.88
2018-08-10T00:40:14.664Z,18.97
2018-08-10T00:42:42.552Z,18.98
2018-08-10T00:45:11.465Z,18.75
2018-08-10T00:47:39.285Z,18.57
2018-08-10T00:50:08.180Z,18.74
2018-08-10T00:52:35.917Z,18.60
2018-08-10T00:55:04.625Z,18.75
2018-08-10T00:57:32.401Z,18.70
2018-08-10T01:00:00.110Z,18.00
2018-08-10T01:02:27.913Z,17.94
2018-08-10T01:04:55.705Z,17.99
2018-08-10T01:07:23.393Z,18.28
2018-08-10T01:09:51.092Z,18.26
2018-08-10T01:12:18.844Z,18.42
2018-08-10T01:14:46.565Z,18.44
2018-08-10T01:17:14.309Z,18.25
2018-08-10T01:19:42.072Z,18.09
2018-08-10T01:22:09.785Z,17.95
2018-08-10T01:24:37.444Z,18.09
2018-08-10T01:27:09.722Z,18.27
2018-08-10T01:29:37.478Z,18.00
2018-08-10T01:32:05.198Z,17.79
2018-08-10T01:34:32.910Z,18.10
2018-08-10T01:37:00.636Z,18.24
2018-08-10T01:39:28.329Z,18.23
2018-08-10T01:41:56.054Z,18.18
2018-08-10T01:44:23.775Z,17.97
2018-08-10T01:46:51.506Z,18.04
2018-08-10T01:49:19.404Z,17.83
2018-08-10T01:51:47.094Z,17.88
2018-08-10T01:54:14.829Z,17.82
2018-08-10T01:56:42.593Z,17.68
2018-08-10T01:59:10.332Z,17.91
2018-08-10T02:01:38.050Z,17.86
2018-08-10T02:04:05.810Z,17.47
2018-08-10T02:06:33.602Z,17.47
2018-08-10T02:09:01.315Z,17.59
2018-08-10T02:11:29.069Z,17.33
2018-08-10T02:13:56.801Z,17.15
2018-08-10T02:16:24.487Z,17.39
2018-08-10T02:18:52.214Z,17.04
2018-08-10T02:21:19.877Z,17.46
2018-08-10T02:23:47.636Z,17.54
2018-08-10T02:26:15.320Z,17.48
2018-08-10T02:28:42.989Z,17.35
2018-08-10T02:31:10.677Z,16.88
2018-08-10T02:33:38.380Z,16.63
2018-08-10T02:36:06.082Z,16.74
2018-08-10T02:38:33.792Z,16.88
2018-08-10T02:41:01.485Z,17.14
2018-08-10T02:43:29.280Z,16.92
2018-08-10T02:45:56.986Z,17.30
2018-08-10T02:48:24.731Z,17.21
2018-08-10T02:50:52.473Z,16.77
2018-08-10T02:53:20.143Z,16.40
2018-08-10T02:55:47.891Z,16.59
2018-08-10T02:58:15.598Z,16.64
2018-08-10T03:00:43.324Z,16.96
2018-08-10T03:03:11.069Z,17.04
2018-08-10T03:05:38.812Z,17.09
2018-08-10T03:08:06.580Z,16.64
2018-08-10T03:10:34.352Z,16.43
2018-08-10T03:13:02.060Z,16.76
2018-08-10T03:15:29.760Z,17.00
2018-08-10T03:17:57.542Z,16.99
2018-08-10T03:20:25.254Z,16.95
2018-08-10T03:22:52.940Z,16.24
2018-08-10T03:25:20.690Z,16.17
2018-08-10T03:27:48.377Z,16.01
2018-08-10T03:30:16.063Z,16.35
2018-08-10T03:32:43.801Z,16.80
2018-08-10T03:35:11.575Z,16.99
2018-08-10T03:37:39.279Z,16.87
2018-08-10T03:40:13.304Z,16.87
2018-08-10T03:42:41.074Z,16.52
2018-08-10T03:45:09.065Z,16.29
2018-08-10T03:47:36.801Z,16.25
2018-08-10T03:50:05.639Z,16.21
2018-08-10T03:52:33.347Z,16.28
2018-08-10T03:55:01.188Z,16.31
2018-08-10T03:57:28.873Z,16.37
2018-08-10T03:59:56.561Z,16.39
2018-08-10T04:02:24.314Z,16.37
2018-08-10T04:04:51.999Z,16.67
2018-08-10T04:07:19.717Z,16.67
2018-08-10T04:09:47.503Z,16.60
2018-08-10T04:12:15.182Z,16.69
2018-08-10T04:14:42.952Z,16.87
2018-08-10T04:17:16.153Z,17.16
2018-08-10T04:19:43.846Z,17.18
2018-08-10T04:22:11.582Z,17.08
2018-08-10T04:24:39.282Z,17.28
2018-08-10T04:27:06.987Z,17.40
2018-08-10T04:29:34.778Z,17.23
2018-08-10T04:32:02.497Z,17.24
2018-08-10T04:34:30.229Z,17.19
2018-08-10T04:36:57.997Z,17.16
2018-08-10T04:39:25.892Z,17.29
2018-08-10T04:41:53.634Z,17.08
2018-08-10T04:44:21.312Z,17.13
2018-08-10T04:46:49.057Z,17.08
2018-08-10T04:49:16.749Z,17.12
2018-08-10T04:51:44.500Z,17.17
2018-08-10T04:54:12.233Z,17.20
2018-08-10T04:56:39.961Z,17.27
2018-08-10T04:59:07.662Z,17.34
2018-08-10T05:01:35.371Z,17.41
2018-08-10T05:04:03.164Z,17.45
2018-08-10T05:06:30.876Z,17.58
2018-08-10T05:08:58.674Z,17.52
2018-08-10T05:11:26.426Z,17.65
2018-08-10T05:13:54.126Z,17.76
2018-08-10T05:16:21.871Z,17.92
2018-08-10T05:18:49.623Z,18.01
2018-08-10T05:21:17.335Z,18.15
2018-08-10T05:23:45.147Z,18.29
2018-08-10T05:26:12.894Z,18.48
2018-08-10T05:28:40.749Z,18.57
2018-08-10T05:31:08.466Z,18.62
2018-08-10T05:33:36.186Z,18.72
2018-08-10T05:36:03.902Z,18.83
2018-08-10T05:38:31.662Z,18.83
2018-08-10T05:40:59.381Z,18.73
2018-08-10T05:43:27.055Z,18.74
2018-08-10T05:45:54.926Z,18.48
2018-08-10T05:48:22.616Z,18.79
2018-08-10T05:50:50.310Z,18.72
2018-08-10T05:53:18.085Z,18.81
2018-08-10T05:55:45.794Z,18.88
2018-08-10T05:58:13.502Z,19.02
2018-08-10T06:00:41.300Z,19.10
2018-08-10T06:03:09.001Z,19.21
2018-08-10T06:05:36.699Z,19.32
2018-08-10T06:08:04.476Z,19.40
2018-08-10T06:10:32.249Z,19.44
2018-08-10T06:12:59.996Z,19.48
2018-08-10T06:15:27.807Z,19.50
2018-08-10T06:17:55.521Z,19.46
2018-08-10T06:20:23.228Z,19.47
2018-08-10T06:22:50.997Z,19.53
2018-08-10T06:25:18.688Z,19.54
2018-08-10T06:27:46.863Z,19.56
2018-08-10T06:30:14.562Z,19.59
2018-08-10T06:32:42.246Z,19.63
2018-08-10T06:35:10.007Z,19.64
2018-08-10T06:37:37.702Z,19.65
2018-08-10T06:40:05.530Z,19.69
2018-08-10T06:42:33.296Z,19.73
2018-08-10T06:45:01.084Z,19.78
2018-08-10T06:47:28.719Z,19.81
2018-08-10T06:49:56.438Z,19.85
2018-08-10T06:52:24.172Z,19.91
2018-08-10T06:54:51.892Z,19.96
2018-08-10T06:57:19.635Z,20.00
2018-08-10T06:59:47.339Z,20.02
2018-08-10T07:02:15.054Z,20.03
2018-08-10T07:04:42.805Z,20.05
2018-08-10T07:07:10.504Z,20.06
2018-08-10T07:09:38.213Z,20.06
2018-08-10T07:12:05.957Z,20.10
2018-08-10T07:14:33.690Z,20.08
2018-08-10T07:17:01.398Z,20.04
2018-08-10T07:19:29.124Z,20.10
2018-08-10T07:21:56.835Z,20.13
2018-08-10T07:24:24.625Z,20.17
2018-08-10T07:26:52.374Z,20.07
2018-08-10T07:29:20.103Z,20.20
2018-08-10T07:31:47.813Z,20.21
2018-08-10T07:34:15.537Z,20.19
2018-08-10T07:36:43.237Z,20.22
2018-08-10T07:39:12.033Z,20.22
2018-08-10T07:41:39.925Z,20.23
2018-08-10T07:44:07.629Z,20.25
2018-08-10T07:46:35.694Z,20.31
2018-08-10T07:49:03.394Z,20.37
2018-08-10T07:51:31.091Z,20.46
2018-08-10T07:53:58.797Z,20.56
2018-08-10T07:56:26.520Z,20.55
2018-08-10T07:58:54.315Z,20.58
2018-08-10T08:01:22.134Z,20.46
2018-08-10T08:03:49.919Z,20.62
2018-08-10T08:06:17.802Z,20.65
2018-08-10T08:08:45.481Z,20.69
2018-08-10T08:11:13.273Z,20.71
2018-08-10T08:13:41.061Z,20.72
2018-08-10T08:16:08.862Z,20.75
2018-08-10T08:18:37.049Z,20.80
2018-08-10T08:21:09.953Z,20.82
2018-08-10T08:23:37.741Z,20.85
2018-08-10T08:26:05.790Z,20.88
2018-08-10T08:28:34.002Z,20.91
2018-08-10T08:31:02.661Z,20.91
2018-08-10T08:33:30.415Z,20.92
2018-08-10T08:35:59.109Z,20.95
2018-08-10T08:38:38.381Z,20.99
2018-08-10T08:41:07.548Z,21.02
2018-08-10T08:46:05.564Z,21.03
2018-08-10T08:48:49.471Z,21.02
2018-08-10T08:51:23.713Z,21.03
2018-08-10T08:55:04.933Z,21.07
2018-08-10T08:57:33.399Z,21.13
2018-08-10T09:00:01.689Z,21.13
2018-08-10T09:02:29.879Z,21.16
2018-08-10T09:05:05.756Z,21.16
2018-08-10T09:07:33.795Z,21.16
2018-08-10T09:10:02.168Z,21.20
2018-08-10T09:12:30.345Z,21.20
2018-08-10T09:15:02.527Z,21.23
2018-08-10T09:17:30.298Z,21.19
2018-08-10T09:19:58.110Z,21.21
2018-08-10T09:22:25.831Z,21.21
2018-08-10T09:24:53.585Z,21.25
2018-08-10T09:27:21.315Z,21.27
2018-08-10T09:29:49.104Z,21.33
2018-08-10T09:32:16.871Z,21.36
2018-08-10T09:34:44.597Z,21.35
2018-08-10T09:37:12.338Z,21.37
2018-08-10T09:39:40.082Z,21.36
2018-08-10T09:42:08.024Z,21.34
2018-08-10T09:44:35.809Z,21.35
2018-08-10T09:47:04.146Z,21.37
2018-08-10T09:49:36.240Z,21.37
2018-08-10T09:52:04.182Z,21.34
2018-08-10T09:54:31.921Z,21.26
2018-08-10T09:57:03.423Z,21.30
2018-08-10T09:59:31.474Z,21.30
2018-08-10T10:02:04.920Z,21.29
2018-08-10T10:04:33.076Z,21.31
2018-08-10T10:07:01.030Z,21.33
2018-08-10T10:09:29.090Z,21.30
2018-08-10T10:11:56.883Z,21.31
2018-08-10T10:14:24.651Z,21.27
2018-08-10T10:16:52.525Z,21.29
2018-08-10T10:19:20.350Z,21.26
2018-08-10T10:21:48.103Z,21.03
2018-08-10T10:24:15.849Z,21.16
2018-08-10T10:26:43.555Z,21.19
2018-08-10T10:29:11.277Z,21.17
2018-08-10T10:31:39.100Z,21.16
2018-08-10T10:34:06.846Z,21.08
2018-08-10T10:36:34.633Z,21.13
2018-08-10T10:39:02.413Z,21.17
2018-08-10T10:41:30.208Z,21.23
2018-08-10T10:43:58.008Z,21.22
2018-08-10T10:46:25.722Z,21.30
2018-08-10T10:48:53.854Z,21.29
2018-08-10T10:51:21.520Z,21.28
2018-08-10T10:53:49.392Z,21.32
2018-08-10T10:56:17.119Z,21.26
2018-08-10T10:58:44.849Z,21.24
2018-08-10T11:01:12.918Z,21.16
2018-08-10T11:03:40.643Z,21.24
2018-08-10T11:06:08.877Z,21.26
2018-08-10T11:08:36.634Z,21.22
2018-08-10T11:11:04.411Z,21.30
2018-08-10T11:13:32.122Z,21.36
2018-08-10T11:15:59.899Z,21.37
2018-08-10T11:18:27.632Z,21.40
2018-08-10T11:20:55.376Z,21.42
2018-08-10T11:23:23.108Z,21.46
2018-08-10T11:25:50.900Z,21.46
2018-08-10T11:28:18.541Z,21.26
2018-08-10T11:30:46.341Z,21.49
2018-08-10T11:33:14.100Z,21.49
2018-08-10T11:35:41.816Z,21.46
2018-08-10T11:38:09.738Z,21.48
2018-08-10T11:40:37.529Z,21.51
2018-08-10T11:43:05.295Z,21.46
2018-08-10T11:45:33.010Z,21.47
2018-08-10T11:48:00.711Z,21.48
2018-08-10T11:50:28.475Z,21.40
2018-08-10T11:52:56.249Z,21.49
2018-08-10T11:55:23.943Z,21.53
2018-08-10T11:57:51.653Z,21.52
2018-08-10T12:00:19.394Z,21.56
2018-08-10T12:02:47.243Z,21.55
2018-08-10T12:05:15.012Z,21.51
2018-08-10T12:07:42.763Z,21.51
2018-08-10T12:10:10.514Z,21.52
2018-08-10T12:12:38.450Z,21.54
2018-08-10T12:15:07.851Z,21.55
2018-08-10T12:17:35.735Z,21.58
2018-08-10T12:20:03.597Z,21.61
2018-08-10T12:22:31.297Z,21.70
2018-08-10T12:24:59.002Z,21.74
2018-08-10T12:27:26.726Z,21.77
2018-08-10T12:29:54.491Z,21.82
2018-08-10T12:32:22.201Z,21.89
2018-08-10T12:34:49.889Z,21.97
2018-08-10T12:37:17.701Z,22.03
2018-08-10T12:39:45.443Z,22.09
2018-08-10T12:42:13.158Z,22.11
2018-08-10T12:44:40.897Z,22.22
2018-08-10T12:47:08.629Z,22.20
2018-08-10T12:49:36.352Z,22.32
2018-08-10T12:52:04.110Z,22.25
2018-08-10T12:54:31.874Z,22.31
2018-08-10T12:56:59.736Z,22.38
2018-08-10T12:59:27.582Z,22.36
2018-08-10T13:01:55.301Z,22.37
2018-08-10T13:04:23.034Z,22.40
2018-08-10T13:06:50.935Z,22.52
2018-08-10T13:09:18.713Z,22.47
2018-08-10T13:11:46.466Z,22.53
2018-08-10T13:14:14.238Z,22.70
2018-08-10T13:16:41.989Z,22.69
2018-08-10T13:19:09.743Z,22.76
2018-08-10T13:21:37.515Z,22.66
2018-08-10T13:24:05.290Z,22.68
2018-08-10T13:26:33.065Z,22.68
2018-08-10T13:29:01.010Z,22.78
2018-08-10T13:31:28.758Z,22.97
2018-08-10T13:33:56.513Z,22.89
2018-08-10T13:36:24.313Z,22.88
2018-08-10T13:38:52.053Z,22.93
2018-08-10T13:41:19.854Z,22.92
2018-08-10T13:43:47.602Z,22.90
2018-08-10T13:46:15.434Z,22.89
2018-08-10T13:48:43.187Z,22.95
2018-08-10T13:51:10.954Z,22.99
2018-08-10T13:53:38.695Z,23.01
2018-08-10T13:56:06.405Z,23.01
2018-08-10T13:58:34.215Z,23.04
2018-08-10T14:01:01.945Z,23.06
2018-08-10T14:03:29.770Z,23.04
2018-08-10T14:05:57.834Z,23.08
2018-08-10T14:08:25.668Z,23.07
2018-08-10T14:10:53.494Z,23.04
2018-08-10T14:13:21.326Z,23.04
2018-08-10T14:15:49.181Z,23.09
2018-08-10T14:18:16.882Z,23.10
2018-08-10T14:20:44.871Z,23.09
2018-08-10T14:23:12.595Z,23.11
2018-08-10T14:25:40.398Z,23.13
2018-08-10T14:28:08.302Z,23.17
2018-08-10T14:30:36.020Z,23.16
2018-08-10T14:33:03.769Z,23.19
2018-08-10T14:35:31.560Z,23.21
2018-08-10T14:37:59.385Z,23.23
2018-08-10T14:40:27.159Z,23.24
2018-08-10T14:42:54.969Z,23.26
2018-08-10T14:45:22.815Z,23.29
2018-08-10T14:47:50.601Z,23.31
2018-08-10T14:50:18.377Z,23.32
2018-08-10T14:52:46.229Z,23.35
2018-08-10T14:55:15.293Z,23.36
2018-08-10T14:57:43.193Z,23.35
2018-08-10T15:00:14.775Z,23.37
2018-08-10T15:02:42.919Z,23.38
2018-08-10T15:05:10.822Z,23.38
2018-08-10T15:07:38.693Z,23.39
2018-08-10T15:10:08.582Z,23.40
2018-08-10T15:12:36.615Z,23.41
2018-08-10T15:15:04.661Z,23.40
2018-08-10T15:17:32.452Z,23.42
2018-08-10T15:20:00.236Z,23.43
2018-08-10T15:22:28.072Z,23.43
2018-08-10T15:24:55.902Z,23.44
2018-08-10T15:27:23.812Z,23.43
2018-08-10T15:29:52.011Z,23.44
2018-08-10T15:32:19.822Z,23.44
2018-08-10T15:34:47.609Z,23.45
2018-08-10T15:37:15.424Z,23.44
2018-08-10T15:39:43.909Z,23.45
2018-08-10T15:42:11.676Z,23.46
2018-08-10T15:44:39.496Z,23.47
2018-08-10T15:47:07.351Z,23.47
2018-08-10T15:49:35.187Z,23.44
2018-08-10T15:52:02.980Z,23.43
2018-08-10T15:54:30.763Z,23.41
2018-08-10T15:56:58.541Z,23.41
2018-08-10T15:59:26.303Z,23.40
2018-08-10T16:01:54.056Z,23.41
2018-08-10T16:04:21.857Z,23.40
2018-08-10T16:06:49.602Z,23.41
2018-08-10T16:09:17.337Z,23.42
2018-08-10T16:11:45.142Z,23.42
2018-08-10T16:14:12.938Z,23.44
2018-08-10T16:16:40.704Z,23.45
2018-08-10T16:19:08.646Z,23.44
2018-08-10T16:21:36.446Z,23.45
2018-08-10T16:24:04.241Z,23.45
2018-08-10T16:26:32.127Z,23.41
2018-08-10T16:28:59.914Z,23.44
2018-08-10T16:31:27.647Z,23.42
2018-08-10T16:33:55.490Z,23.43
2018-08-10T16:36:23.239Z,23.42
2018-08-10T16:38:51.022Z,23.44
2018-08-10T16:41:18.858Z,23.44
2018-08-10T16:43:46.917Z,23.42
2018-08-10T16:46:14.657Z,23.42
2018-08-10T16:48:42.468Z,23.43
2018-08-10T16:51:10.234Z,23.37
2018-08-10T16:53:37.977Z,23.41
2018-08-10T16:56:05.767Z,23.39
2018-08-10T16:58:33.578Z,23.40
2018-08-10T17:01:01.367Z,23.41
2018-08-10T17:03:29.152Z,23.46
2018-08-10T17:05:56.922Z,23.47
2018-08-10T17:08:24.684Z,23.49
2018-08-10T17:10:52.470Z,23.49
2018-08-10T17:13:20.210Z,23.51
2018-08-10T17:15:47.969Z,23.54
2018-08-10T17:18:15.773Z,23.48
2018-08-10T17:20:43.534Z,23.46
2018-08-10T17:23:11.304Z,23.42
2018-08-10T17:25:39.349Z,23.39
2018-08-10T17:28:07.148Z,23.27
2018-08-10T17:30:34.883Z,23.21
2018-08-10T17:33:02.778Z,23.20
2018-08-10T17:35:30.546Z,23.17
2018-08-10T17:37:58.332Z,23.18
2018-08-10T17:40:26.054Z,23.19
2018-08-10T17:42:53.781Z,23.12
2018-08-10T17:45:21.478Z,23.09
2018-08-10T17:47:49.278Z,23.06
2018-08-10T17:50:18.966Z,23.06
2018-08-10T17:52:48.503Z,22.98
2018-08-10T17:55:16.981Z,22.95
2018-08-10T17:57:44.957Z,22.84
2018-08-10T18:00:15.370Z,22.81
2018-08-10T18:02:43.466Z,22.68
2018-08-10T18:05:12.860Z,22.62
2018-08-10T18:07:40.873Z,22.56
2018-08-10T18:10:09.575Z,22.59
2018-08-10T18:12:38.500Z,22.52
2018-08-10T18:15:08.088Z,22.44
2018-08-10T18:17:36.560Z,22.40
2018-08-10T18:20:06.668Z,22.36
2018-08-10T18:22:34.371Z,22.25
2018-08-10T18:25:02.208Z,22.32
2018-08-10T18:27:30.147Z,22.26
2018-08-10T18:29:57.898Z,22.19
2018-08-10T18:32:25.677Z,22.22
2018-08-10T18:34:53.529Z,22.10
2018-08-10T18:37:21.206Z,22.23
2018-08-10T18:39:49.010Z,21.97
2018-08-10T18:42:16.709Z,21.91
2018-08-10T18:44:44.484Z,21.89
2018-08-10T18:47:12.323Z,22.00
2018-08-10T18:49:40.061Z,21.90
2018-08-10T18:52:07.826Z,21.68
2018-08-10T18:54:35.811Z,21.75
2018-08-10T18:57:03.761Z,21.84
2018-08-10T18:59:31.516Z,21.83
2018-08-10T19:01:59.347Z,21.67
2018-08-10T19:04:27.072Z,21.67
2018-08-10T19:06:54.889Z,21.35
2018-08-10T19:09:22.704Z,21.44
2018-08-10T19:11:50.386Z,21.58
2018-08-10T19:14:18.222Z,21.56
2018-08-10T19:16:45.948Z,21.50
2018-08-10T19:19:13.635Z,21.45
2018-08-10T19:21:41.304Z,21.14
2018-08-10T19:24:09.098Z,21.10
2018-08-10T19:26:37.060Z,21.15
2018-08-10T19:29:04.861Z,20.93
2018-08-10T19:31:32.579Z,20.87
2018-08-10T19:34:00.282Z,21.14
2018-08-10T19:36:27.988Z,20.98
2018-08-10T19:38:55.700Z,20.95
2018-08-10T19:41:23.404Z,20.95
2018-08-10T19:43:51.186Z,20.90
2018-08-10T19:46:18.953Z,21.01
2018-08-10T19:48:46.707Z,20.87
2018-08-10T19:51:14.532Z,20.86
2018-08-10T19:53:42.321Z,20.88
2018-08-10T19:56:10.133Z,20.86
2018-08-10T19:58:37.742Z,20.77
2018-08-10T20:01:05.443Z,20.51
2018-08-10T20:03:33.173Z,20.38
2018-08-10T20:06:00.935Z,20.44
2018-08-10T20:08:28.750Z,20.55
2018-08-10T20:10:56.440Z,20.56
2018-08-10T20:13:24.372Z,20.40
2018-08-10T20:15:52.199Z,20.33
2018-08-10T20:18:19.924Z,20.37
2018-08-10T20:20:47.728Z,20.12
2018-08-10T20:23:16.745Z,20.31
2018-08-10T20:25:44.439Z,20.24
2018-08-10T20:28:12.181Z,20.09
2018-08-10T20:30:39.969Z,20.26
2018-08-10T20:33:07.634Z,20.00
2018-08-10T20:35:35.411Z,20.17
2018-08-10T20:38:03.252Z,20.01
2018-08-10T20:40:31.081Z,19.86
2018-08-10T20:42:58.946Z,19.72
2018-08-10T20:45:26.723Z,19.85
2018-08-10T20:47:54.467Z,20.01
2018-08-10T20:50:23.634Z,20.01
2018-08-10T20:52:51.428Z,19.76
2018-08-10T20:55:19.318Z,19.68
2018-08-10T20:57:47.431Z,19.73
2018-08-10T21:00:15.227Z,19.71
2018-08-10T21:02:43.843Z,19.42
2018-08-10T21:05:12.070Z,19.64
2018-08-10T21:07:39.834Z,19.39
2018-08-10T21:10:10.001Z,19.46
2018-08-10T21:12:38.124Z,19.36
2018-08-10T21:15:07.260Z,19.57
2018-08-10T21:17:35.023Z,19.27
2018-08-10T21:20:02.762Z,19.14
2018-08-10T21:22:30.497Z,19.21
2018-08-10T21:24:58.236Z,19.22
2018-08-10T21:27:25.929Z,19.44
2018-08-10T21:29:53.712Z,19.48
2018-08-10T21:32:21.426Z,19.06
2018-08-10T21:34:49.075Z,19.38
2018-08-10T21:37:16.824Z,19.04
2018-08-10T21:39:44.488Z,19.10
2018-08-10T21:42:12.181Z,19.34
2018-08-10T21:44:39.917Z,18.87
2018-08-10T21:47:07.604Z,19.14
2018-08-10T21:49:35.322Z,19.12
2018-08-10T21:52:03.088Z,18.75
2018-08-10T21:54:30.820Z,18.94
2018-08-10T21:56:58.527Z,18.97
2018-08-10T21:59:26.285Z,18.90
2018-08-10T22:01:54.096Z,18.73
2018-08-10T22:04:21.884Z,18.80
2018-08-10T22:06:49.646Z,18.41
2018-08-10T22:09:17.370Z,18.77
2018-08-10T22:11:45.098Z,18.87
2018-08-10T22:14:18.488Z,18.79
2018-08-10T22:16:51.642Z,18.70
2018-08-10T22:19:19.376Z,18.65
2018-08-10T22:21:47.112Z,18.78
2018-08-10T22:24:15.321Z,18.35
2018-08-10T22:26:43.304Z,18.52
2018-08-10T22:29:11.167Z,18.65
2018-08-10T22:31:39.004Z,18.46
2018-08-10T22:34:06.925Z,18.37
2018-08-10T22:36:34.659Z,18.38
2018-08-10T22:39:02.610Z,18.61
2018-08-10T22:41:30.317Z,18.47
2018-08-10T22:43:57.999Z,18.39
2018-08-10T22:46:25.756Z,18.39
2018-08-10T22:48:53.472Z,18.27
2018-08-10T22:51:21.151Z,18.12
2018-08-10T22:53:48.851Z,17.91
2018-08-10T22:56:16.600Z,18.29
2018-08-10T22:58:44.318Z,18.19
2018-08-10T23:01:12.056Z,18.02
2018-08-10T23:03:39.778Z,18.09
2018-08-10T23:06:07.445Z,17.93
2018-08-10T23:08:35.207Z,18.04
2018-08-10T23:11:03.021Z,18.02
2018-08-10T23:13:30.765Z,17.91
2018-08-10T23:15:58.629Z,17.91
2018-08-10T23:18:26.437Z,17.94
2018-08-10T23:20:54.163Z,17.98
2018-08-10T23:23:21.877Z,17.70
2018-08-10T23:25:49.605Z,17.78
2018-08-10T23:28:17.285Z,17.56
2018-08-10T23:30:44.968Z,17.49
2018-08-10T23:33:12.715Z,17.39
2018-08-10T23:35:40.392Z,17.61
2018-08-10T23:38:08.082Z,17.39
2018-08-10T23:40:35.916Z,17.55
2018-08-10T23:43:03.728Z,17.61
2018-08-10T23:45:31.561Z,17.61
2018-08-10T23:47:59.335Z,17.49
2018-08-10T23:50:27.000Z,17.20
2018-08-10T23:52:54.708Z,17.32
2018-08-10T23:55:22.460Z,17.57
2018-08-10T23:57:50.251Z,17.48
